sensor_id;sensor_type;location;lat;lon;timestamp;P1;durP1;ratioP1;P2;durP2;ratioP2
55417;SDS011;41287;47.554;7.844;2022-09-23T00:01:51;1.50;;;1.10;;
55417;SDS011;41287;47.554;7.844;2022-09-23T00:04:17;2.03;;;1.20;;
55417;SDS011;41287;47.554;7.844;2022-09-23T00:06:42;1.40;;;0.90;;
55417;SDS011;41287;47.554;7.844;2022-09-23T00:09:08;1.55;;;1.02;;
55417;SDS011;41287;47.554;7.844;2022-09-23T00:11:33;1.95;;;1.00;;
55417;SDS011;41287;47.554;7.844;2022-09-23T00:13:59;1.52;;;0.90;;
55417;SDS011;41287;47.554;7.844;2022-09-23T00:16:26;2.00;;;1.00;;
55417;SDS011;41287;47.554;7.844;2022-09-23T00:18:52;1.60;;;0.95;;
55417;SDS011;41287;47.554;7.844;2022-09-23T00:21:18;2.25;;;0.95;;
55417;SDS011;41287;47.554;7.844;2022-09-23T00:23:49;1.60;;;0.95;;
55417;SDS011;41287;47.554;7.844;2022-09-23T00:26:15;1.30;;;0.98;;
55417;SDS011;41287;47.554;7.844;2022-09-23T00:28:43;1.73;;;1.00;;
55417;SDS011;41287;47.554;7.844;2022-09-23T00:31:17;2.15;;;1.10;;
55417;SDS011;41287;47.554;7.844;2022-09-23T00:33:44;1.70;;;1.00;;
55417;SDS011;41287;47.554;7.844;2022-09-23T00:36:10;1.75;;;1.00;;
55417;SDS011;41287;47.554;7.844;2022-09-23T00:38:40;1.60;;;1.08;;
55417;SDS011;41287;47.554;7.844;2022-09-23T00:41:07;1.60;;;1.05;;
55417;SDS011;41287;47.554;7.844;2022-09-23T00:43:39;1.85;;;1.02;;
55417;SDS011;41287;47.554;7.844;2022-09-23T00:46:08;2.70;;;1.17;;
55417;SDS011;41287;47.554;7.844;2022-09-23T00:48:36;1.83;;;1.08;;
55417;SDS011;41287;47.554;7.844;2022-09-23T00:51:05;1.27;;;0.88;;
55417;SDS011;41287;47.554;7.844;2022-09-23T00:53:33;2.70;;;1.00;;
55417;SDS011;41287;47.554;7.844;2022-09-23T00:56:01;2.47;;;1.30;;
55417;SDS011;41287;47.554;7.844;2022-09-23T00:58:29;2.28;;;0.90;;
55417;SDS011;41287;47.554;7.844;2022-09-23T01:00:58;1.92;;;1.10;;
55417;SDS011;41287;47.554;7.844;2022-09-23T01:03:25;2.63;;;1.13;;
55417;SDS011;41287;47.554;7.844;2022-09-23T01:05:51;1.70;;;1.00;;
55417;SDS011;41287;47.554;7.844;2022-09-23T01:08:17;1.58;;;0.90;;
55417;SDS011;41287;47.554;7.844;2022-09-23T01:21:23;2.35;;;1.30;;
55417;SDS011;41287;47.554;7.844;2022-09-23T01:27:03;1.35;;;0.90;;
55417;SDS011;41287;47.554;7.844;2022-09-23T01:29:47;2.08;;;1.10;;
55417;SDS011;41287;47.554;7.844;2022-09-23T01:40:45;1.70;;;1.02;;
55417;SDS011;41287;47.554;7.844;2022-09-23T01:43:28;1.38;;;0.98;;
55417;SDS011;41287;47.554;7.844;2022-09-23T01:46:00;1.88;;;1.17;;
55417;SDS011;41287;47.554;7.844;2022-09-23T01:48:34;1.23;;;0.85;;
55417;SDS011;41287;47.554;7.844;2022-09-23T01:51:06;2.00;;;0.95;;
55417;SDS011;41287;47.554;7.844;2022-09-23T01:53:45;1.58;;;1.00;;
55417;SDS011;41287;47.554;7.844;2022-09-23T01:56:20;1.20;;;0.73;;
55417;SDS011;41287;47.554;7.844;2022-09-23T01:58:55;1.58;;;0.90;;
55417;SDS011;41287;47.554;7.844;2022-09-23T02:01:33;3.13;;;1.30;;
55417;SDS011;41287;47.554;7.844;2022-09-23T02:04:05;1.27;;;0.90;;
55417;SDS011;41287;47.554;7.844;2022-09-23T02:06:48;1.42;;;1.02;;
55417;SDS011;41287;47.554;7.844;2022-09-23T02:09:21;1.40;;;1.13;;
55417;SDS011;41287;47.554;7.844;2022-09-23T02:11:50;1.77;;;0.90;;
55417;SDS011;41287;47.554;7.844;2022-09-23T02:14:26;2.42;;;1.10;;
55417;SDS011;41287;47.554;7.844;2022-09-23T02:16:57;2.53;;;1.10;;
55417;SDS011;41287;47.554;7.844;2022-09-23T02:19:38;1.58;;;0.98;;
55417;SDS011;41287;47.554;7.844;2022-09-23T02:22:14;2.00;;;1.05;;
55417;SDS011;41287;47.554;7.844;2022-09-23T02:24:45;1.80;;;1.02;;
55417;SDS011;41287;47.554;7.844;2022-09-23T02:30:13;2.00;;;0.85;;
55417;SDS011;41287;47.554;7.844;2022-09-23T02:33:00;1.65;;;0.90;;
55417;SDS011;41287;47.554;7.844;2022-09-23T02:35:30;1.02;;;0.80;;
55417;SDS011;41287;47.554;7.844;2022-09-23T02:41:03;1.00;;;0.88;;
55417;SDS011;41287;47.554;7.844;2022-09-23T02:43:41;1.85;;;0.88;;
55417;SDS011;41287;47.554;7.844;2022-09-23T02:46:12;1.00;;;0.75;;
55417;SDS011;41287;47.554;7.844;2022-09-23T02:51:05;1.58;;;0.88;;
55417;SDS011;41287;47.554;7.844;2022-09-23T02:53:31;2.55;;;1.00;;
55417;SDS011;41287;47.554;7.844;2022-09-23T02:55:58;1.45;;;0.85;;
55417;SDS011;41287;47.554;7.844;2022-09-23T02:58:24;1.58;;;1.02;;
55417;SDS011;41287;47.554;7.844;2022-09-23T03:00:54;1.90;;;1.13;;
55417;SDS011;41287;47.554;7.844;2022-09-23T03:03:46;1.35;;;0.80;;
55417;SDS011;41287;47.554;7.844;2022-09-23T03:09:11;1.48;;;0.85;;
55417;SDS011;41287;47.554;7.844;2022-09-23T03:11:45;1.23;;;0.93;;
55417;SDS011;41287;47.554;7.844;2022-09-23T03:14:28;1.02;;;0.93;;
55417;SDS011;41287;47.554;7.844;2022-09-23T03:17:13;1.05;;;0.80;;
55417;SDS011;41287;47.554;7.844;2022-09-23T03:20:02;2.30;;;1.20;;
55417;SDS011;41287;47.554;7.844;2022-09-23T03:22:54;1.40;;;0.90;;
55417;SDS011;41287;47.554;7.844;2022-09-23T03:25:25;1.80;;;1.10;;
55417;SDS011;41287;47.554;7.844;2022-09-23T03:27:55;1.65;;;0.93;;
55417;SDS011;41287;47.554;7.844;2022-09-23T03:30:24;1.63;;;0.90;;
55417;SDS011;41287;47.554;7.844;2022-09-23T03:32:50;1.45;;;1.10;;
55417;SDS011;41287;47.554;7.844;2022-09-23T03:35:17;1.13;;;1.00;;
55417;SDS011;41287;47.554;7.844;2022-09-23T03:37:49;1.30;;;1.00;;
55417;SDS011;41287;47.554;7.844;2022-09-23T03:40:30;1.58;;;1.00;;
55417;SDS011;41287;47.554;7.844;2022-09-23T03:43:07;1.40;;;1.08;;
55417;SDS011;41287;47.554;7.844;2022-09-23T03:45:33;2.53;;;0.90;;
55417;SDS011;41287;47.554;7.844;2022-09-23T03:47:59;0.85;;;0.80;;
55417;SDS011;41287;47.554;7.844;2022-09-23T03:50:27;1.15;;;0.77;;
55417;SDS011;41287;47.554;7.844;2022-09-23T03:52:52;1.63;;;1.08;;
55417;SDS011;41287;47.554;7.844;2022-09-23T03:55:18;0.98;;;0.73;;
55417;SDS011;41287;47.554;7.844;2022-09-23T03:57:44;1.02;;;0.85;;
55417;SDS011;41287;47.554;7.844;2022-09-23T04:00:10;1.80;;;1.05;;
55417;SDS011;41287;47.554;7.844;2022-09-23T04:02:36;1.20;;;0.80;;
55417;SDS011;41287;47.554;7.844;2022-09-23T04:05:02;2.95;;;0.80;;
55417;SDS011;41287;47.554;7.844;2022-09-23T04:07:28;2.55;;;0.93;;
55417;SDS011;41287;47.554;7.844;2022-09-23T04:09:53;1.80;;;1.10;;
55417;SDS011;41287;47.554;7.844;2022-09-23T04:12:19;1.75;;;1.00;;
55417;SDS011;41287;47.554;7.844;2022-09-23T04:14:45;2.97;;;1.10;;
55417;SDS011;41287;47.554;7.844;2022-09-23T04:17:10;3.65;;;1.10;;
55417;SDS011;41287;47.554;7.844;2022-09-23T04:19:36;7.20;;;1.00;;
55417;SDS011;41287;47.554;7.844;2022-09-23T04:22:02;4.13;;;1.05;;
55417;SDS011;41287;47.554;7.844;2022-09-23T04:24:28;3.38;;;0.77;;
55417;SDS011;41287;47.554;7.844;2022-09-23T04:26:54;3.17;;;1.05;;
55417;SDS011;41287;47.554;7.844;2022-09-23T04:29:21;2.75;;;0.90;;
55417;SDS011;41287;47.554;7.844;2022-09-23T04:31:47;3.35;;;0.73;;
55417;SDS011;41287;47.554;7.844;2022-09-23T04:34:13;2.38;;;0.98;;
55417;SDS011;41287;47.554;7.844;2022-09-23T04:36:40;1.48;;;0.68;;
55417;SDS011;41287;47.554;7.844;2022-09-23T04:39:06;1.83;;;0.80;;
55417;SDS011;41287;47.554;7.844;2022-09-23T04:41:31;1.02;;;0.60;;
55417;SDS011;41287;47.554;7.844;2022-09-23T04:43:56;2.38;;;0.80;;
55417;SDS011;41287;47.554;7.844;2022-09-23T04:46:22;2.58;;;0.82;;
55417;SDS011;41287;47.554;7.844;2022-09-23T04:48:47;1.60;;;0.80;;
55417;SDS011;41287;47.554;7.844;2022-09-23T04:51:17;1.20;;;0.70;;
55417;SDS011;41287;47.554;7.844;2022-09-23T04:53:45;0.65;;;0.47;;
55417;SDS011;41287;47.554;7.844;2022-09-23T04:56:16;1.67;;;0.90;;
55417;SDS011;41287;47.554;7.844;2022-09-23T04:58:43;3.08;;;0.77;;
55417;SDS011;41287;47.554;7.844;2022-09-23T05:01:16;1.40;;;0.80;;
55417;SDS011;41287;47.554;7.844;2022-09-23T05:03:44;1.77;;;0.82;;
55417;SDS011;41287;47.554;7.844;2022-09-23T05:06:12;1.00;;;0.70;;
55417;SDS011;41287;47.554;7.844;2022-09-23T05:08:39;1.20;;;0.90;;
55417;SDS011;41287;47.554;7.844;2022-09-23T05:11:05;1.38;;;0.90;;
55417;SDS011;41287;47.554;7.844;2022-09-23T05:13:31;2.42;;;0.90;;
55417;SDS011;41287;47.554;7.844;2022-09-23T05:16:01;1.65;;;0.82;;
55417;SDS011;41287;47.554;7.844;2022-09-23T05:18:32;2.15;;;1.20;;
55417;SDS011;41287;47.554;7.844;2022-09-23T05:20:58;1.85;;;1.08;;
55417;SDS011;41287;47.554;7.844;2022-09-23T05:23:23;2.88;;;1.10;;
55417;SDS011;41287;47.554;7.844;2022-09-23T05:25:54;1.63;;;1.00;;
55417;SDS011;41287;47.554;7.844;2022-09-23T05:28:22;4.18;;;1.08;;
55417;SDS011;41287;47.554;7.844;2022-09-23T05:30:47;2.03;;;1.17;;
55417;SDS011;41287;47.554;7.844;2022-09-23T05:33:14;4.03;;;1.20;;
55417;SDS011;41287;47.554;7.844;2022-09-23T05:35:44;3.67;;;1.20;;
55417;SDS011;41287;47.554;7.844;2022-09-23T05:38:10;2.80;;;1.20;;
55417;SDS011;41287;47.554;7.844;2022-09-23T05:40:36;2.05;;;1.20;;
55417;SDS011;41287;47.554;7.844;2022-09-23T05:43:01;2.78;;;1.30;;
55417;SDS011;41287;47.554;7.844;2022-09-23T05:45:26;3.58;;;1.52;;
55417;SDS011;41287;47.554;7.844;2022-09-23T05:47:52;2.60;;;1.60;;
55417;SDS011;41287;47.554;7.844;2022-09-23T05:50:17;2.38;;;1.17;;
55417;SDS011;41287;47.554;7.844;2022-09-23T05:52:42;5.45;;;1.52;;
55417;SDS011;41287;47.554;7.844;2022-09-23T05:55:08;4.15;;;1.50;;
55417;SDS011;41287;47.554;7.844;2022-09-23T05:57:35;9.68;;;1.42;;
55417;SDS011;41287;47.554;7.844;2022-09-23T06:00:02;3.22;;;1.48;;
55417;SDS011;41287;47.554;7.844;2022-09-23T06:02:28;3.10;;;1.20;;
55417;SDS011;41287;47.554;7.844;2022-09-23T06:04:53;4.53;;;1.20;;
55417;SDS011;41287;47.554;7.844;2022-09-23T06:07:19;5.05;;;1.35;;
55417;SDS011;41287;47.554;7.844;2022-09-23T06:09:44;4.25;;;1.27;;
55417;SDS011;41287;47.554;7.844;2022-09-23T06:12:09;3.72;;;1.50;;
55417;SDS011;41287;47.554;7.844;2022-09-23T06:14:36;2.45;;;1.30;;
55417;SDS011;41287;47.554;7.844;2022-09-23T06:17:01;3.95;;;1.30;;
55417;SDS011;41287;47.554;7.844;2022-09-23T06:19:27;5.13;;;1.50;;
55417;SDS011;41287;47.554;7.844;2022-09-23T06:21:52;6.03;;;1.65;;
55417;SDS011;41287;47.554;7.844;2022-09-23T06:24:17;6.72;;;1.80;;
55417;SDS011;41287;47.554;7.844;2022-09-23T06:26:46;3.65;;;1.10;;
55417;SDS011;41287;47.554;7.844;2022-09-23T06:29:12;6.35;;;1.55;;
55417;SDS011;41287;47.554;7.844;2022-09-23T06:31:38;5.03;;;1.40;;
55417;SDS011;41287;47.554;7.844;2022-09-23T06:34:05;5.10;;;1.48;;
55417;SDS011;41287;47.554;7.844;2022-09-23T06:36:33;5.93;;;1.55;;
55417;SDS011;41287;47.554;7.844;2022-09-23T06:38:58;3.10;;;1.30;;
55417;SDS011;41287;47.554;7.844;2022-09-23T06:41:23;4.53;;;1.52;;
55417;SDS011;41287;47.554;7.844;2022-09-23T06:43:49;5.53;;;1.77;;
55417;SDS011;41287;47.554;7.844;2022-09-23T06:46:14;2.00;;;1.10;;
55417;SDS011;41287;47.554;7.844;2022-09-23T06:48:41;3.65;;;1.55;;
55417;SDS011;41287;47.554;7.844;2022-09-23T06:51:10;3.20;;;1.40;;
55417;SDS011;41287;47.554;7.844;2022-09-23T06:53:43;3.58;;;1.30;;
55417;SDS011;41287;47.554;7.844;2022-09-23T06:56:11;4.80;;;1.58;;
55417;SDS011;41287;47.554;7.844;2022-09-23T06:58:36;2.35;;;1.20;;
55417;SDS011;41287;47.554;7.844;2022-09-23T07:01:04;3.15;;;1.33;;
55417;SDS011;41287;47.554;7.844;2022-09-23T07:03:36;3.53;;;1.30;;
55417;SDS011;41287;47.554;7.844;2022-09-23T07:06:02;2.55;;;1.48;;
55417;SDS011;41287;47.554;7.844;2022-09-23T07:08:30;5.57;;;1.55;;
55417;SDS011;41287;47.554;7.844;2022-09-23T07:10:58;2.70;;;1.30;;
55417;SDS011;41287;47.554;7.844;2022-09-23T07:13:25;10.45;;;1.40;;
55417;SDS011;41287;47.554;7.844;2022-09-23T07:15:52;7.80;;;1.58;;
55417;SDS011;41287;47.554;7.844;2022-09-23T07:18:20;4.05;;;1.10;;
55417;SDS011;41287;47.554;7.844;2022-09-23T07:20:48;3.63;;;1.50;;
55417;SDS011;41287;47.554;7.844;2022-09-23T07:23:14;3.80;;;1.60;;
55417;SDS011;41287;47.554;7.844;2022-09-23T07:25:39;3.00;;;1.27;;
55417;SDS011;41287;47.554;7.844;2022-09-23T07:28:06;2.58;;;1.33;;
55417;SDS011;41287;47.554;7.844;2022-09-23T07:30:34;3.90;;;1.50;;
55417;SDS011;41287;47.554;7.844;2022-09-23T07:33:01;2.15;;;1.20;;
55417;SDS011;41287;47.554;7.844;2022-09-23T07:35:26;4.10;;;1.48;;
55417;SDS011;41287;47.554;7.844;2022-09-23T07:37:52;3.80;;;1.63;;
55417;SDS011;41287;47.554;7.844;2022-09-23T07:40:17;5.03;;;1.35;;
55417;SDS011;41287;47.554;7.844;2022-09-23T07:42:42;4.65;;;1.02;;
55417;SDS011;41287;47.554;7.844;2022-09-23T07:45:10;4.97;;;1.38;;
55417;SDS011;41287;47.554;7.844;2022-09-23T07:47:35;4.57;;;1.48;;
55417;SDS011;41287;47.554;7.844;2022-09-23T07:50:04;10.32;;;1.88;;
55417;SDS011;41287;47.554;7.844;2022-09-23T07:52:30;3.25;;;1.17;;
55417;SDS011;41287;47.554;7.844;2022-09-23T07:54:55;3.70;;;1.05;;
55417;SDS011;41287;47.554;7.844;2022-09-23T07:57:21;3.25;;;1.23;;
55417;SDS011;41287;47.554;7.844;2022-09-23T07:59:46;4.22;;;1.30;;
55417;SDS011;41287;47.554;7.844;2022-09-23T08:02:16;8.25;;;1.50;;
55417;SDS011;41287;47.554;7.844;2022-09-23T08:04:42;3.58;;;1.35;;
55417;SDS011;41287;47.554;7.844;2022-09-23T08:07:07;7.25;;;1.40;;
55417;SDS011;41287;47.554;7.844;2022-09-23T08:09:35;4.65;;;1.48;;
55417;SDS011;41287;47.554;7.844;2022-09-23T08:12:05;5.07;;;1.98;;
55417;SDS011;41287;47.554;7.844;2022-09-23T08:14:33;2.88;;;1.55;;
55417;SDS011;41287;47.554;7.844;2022-09-23T08:16:59;3.47;;;1.48;;
55417;SDS011;41287;47.554;7.844;2022-09-23T08:19:27;4.13;;;1.25;;
55417;SDS011;41287;47.554;7.844;2022-09-23T08:21:52;3.63;;;1.48;;
55417;SDS011;41287;47.554;7.844;2022-09-23T08:24:20;6.85;;;1.50;;
55417;SDS011;41287;47.554;7.844;2022-09-23T08:26:48;6.07;;;1.60;;
55417;SDS011;41287;47.554;7.844;2022-09-23T08:29:18;2.28;;;1.20;;
55417;SDS011;41287;47.554;7.844;2022-09-23T08:31:46;5.57;;;1.77;;
55417;SDS011;41287;47.554;7.844;2022-09-23T08:34:13;5.60;;;1.45;;
55417;SDS011;41287;47.554;7.844;2022-09-23T08:36:39;3.85;;;1.50;;
55417;SDS011;41287;47.554;7.844;2022-09-23T08:39:05;3.03;;;1.65;;
55417;SDS011;41287;47.554;7.844;2022-09-23T08:46:52;3.88;;;1.10;;
55417;SDS011;41287;47.554;7.844;2022-09-23T08:49:33;4.40;;;1.35;;
55417;SDS011;41287;47.554;7.844;2022-09-23T08:52:05;4.82;;;1.42;;
55417;SDS011;41287;47.554;7.844;2022-09-23T08:54:40;3.72;;;1.30;;
55417;SDS011;41287;47.554;7.844;2022-09-23T08:57:06;4.05;;;1.60;;
55417;SDS011;41287;47.554;7.844;2022-09-23T08:59:41;2.58;;;1.25;;
55417;SDS011;41287;47.554;7.844;2022-09-23T09:02:17;2.88;;;1.15;;
55417;SDS011;41287;47.554;7.844;2022-09-23T09:05:07;2.55;;;1.38;;
55417;SDS011;41287;47.554;7.844;2022-09-23T09:07:34;2.00;;;1.10;;
55417;SDS011;41287;47.554;7.844;2022-09-23T09:10:38;4.15;;;1.45;;
55417;SDS011;41287;47.554;7.844;2022-09-23T09:13:20;3.17;;;1.23;;
55417;SDS011;41287;47.554;7.844;2022-09-23T09:16:34;2.72;;;1.20;;
55417;SDS011;41287;47.554;7.844;2022-09-23T09:19:20;3.17;;;1.30;;
55417;SDS011;41287;47.554;7.844;2022-09-23T09:21:56;4.10;;;1.30;;
55417;SDS011;41287;47.554;7.844;2022-09-23T09:24:30;2.45;;;1.30;;
55417;SDS011;41287;47.554;7.844;2022-09-23T09:26:59;4.60;;;1.42;;
55417;SDS011;41287;47.554;7.844;2022-09-23T09:29:26;3.63;;;1.30;;
55417;SDS011;41287;47.554;7.844;2022-09-23T09:31:56;3.22;;;1.13;;
55417;SDS011;41287;47.554;7.844;2022-09-23T09:34:25;4.38;;;1.40;;
55417;SDS011;41287;47.554;7.844;2022-09-23T09:39:23;2.42;;;1.38;;
55417;SDS011;41287;47.554;7.844;2022-09-23T09:41:49;2.65;;;1.00;;
55417;SDS011;41287;47.554;7.844;2022-09-23T09:44:20;3.80;;;1.60;;
55417;SDS011;41287;47.554;7.844;2022-09-23T09:46:50;4.57;;;1.45;;
55417;SDS011;41287;47.554;7.844;2022-09-23T09:49:33;3.42;;;1.27;;
55417;SDS011;41287;47.554;7.844;2022-09-23T09:54:44;1.98;;;1.20;;
55417;SDS011;41287;47.554;7.844;2022-09-23T09:59:55;2.25;;;1.30;;
55417;SDS011;41287;47.554;7.844;2022-09-23T10:02:26;1.80;;;1.00;;
55417;SDS011;41287;47.554;7.844;2022-09-23T10:04:55;1.77;;;1.00;;
55417;SDS011;41287;47.554;7.844;2022-09-23T10:07:27;2.58;;;1.25;;
55417;SDS011;41287;47.554;7.844;2022-09-23T10:09:54;2.00;;;1.13;;
55417;SDS011;41287;47.554;7.844;2022-09-23T10:12:22;2.35;;;1.45;;
55417;SDS011;41287;47.554;7.844;2022-09-23T10:14:50;2.80;;;1.27;;
55417;SDS011;41287;47.554;7.844;2022-09-23T10:17:31;1.98;;;1.00;;
55417;SDS011;41287;47.554;7.844;2022-09-23T10:19:58;1.77;;;1.10;;
55417;SDS011;41287;47.554;7.844;2022-09-23T10:22:27;3.20;;;1.30;;
55417;SDS011;41287;47.554;7.844;2022-09-23T10:24:58;1.88;;;1.35;;
55417;SDS011;41287;47.554;7.844;2022-09-23T10:27:31;3.40;;;1.40;;
55417;SDS011;41287;47.554;7.844;2022-09-23T10:30:06;2.30;;;1.15;;
55417;SDS011;41287;47.554;7.844;2022-09-23T10:32:48;2.47;;;1.58;;
55417;SDS011;41287;47.554;7.844;2022-09-23T10:35:18;1.88;;;1.20;;
55417;SDS011;41287;47.554;7.844;2022-09-23T10:37:49;3.38;;;1.00;;
55417;SDS011;41287;47.554;7.844;2022-09-23T10:46:29;2.97;;;1.30;;
55417;SDS011;41287;47.554;7.844;2022-09-23T10:55:07;2.38;;;1.23;;
55417;SDS011;41287;47.554;7.844;2022-09-23T11:06:06;4.05;;;1.30;;
55417;SDS011;41287;47.554;7.844;2022-09-23T11:17:31;3.88;;;1.50;;
55417;SDS011;41287;47.554;7.844;2022-09-23T11:31:21;2.38;;;1.23;;
55417;SDS011;41287;47.554;7.844;2022-09-23T11:36:41;2.00;;;1.15;;
55417;SDS011;41287;47.554;7.844;2022-09-23T11:39:16;2.25;;;1.23;;
55417;SDS011;41287;47.554;7.844;2022-09-23T11:41:47;5.60;;;1.40;;
55417;SDS011;41287;47.554;7.844;2022-09-23T11:46:57;2.85;;;1.10;;
55417;SDS011;41287;47.554;7.844;2022-09-23T11:49:39;3.35;;;1.15;;
55417;SDS011;41287;47.554;7.844;2022-09-23T11:52:14;3.97;;;1.67;;
55417;SDS011;41287;47.554;7.844;2022-09-23T11:54:48;4.07;;;1.50;;
55417;SDS011;41287;47.554;7.844;2022-09-23T11:57:28;1.98;;;1.25;;
55417;SDS011;41287;47.554;7.844;2022-09-23T11:59:59;1.75;;;0.95;;
55417;SDS011;41287;47.554;7.844;2022-09-23T12:05:09;2.15;;;1.30;;
55417;SDS011;41287;47.554;7.844;2022-09-23T12:07:42;3.45;;;1.50;;
55417;SDS011;41287;47.554;7.844;2022-09-23T12:10:11;2.55;;;1.40;;
55417;SDS011;41287;47.554;7.844;2022-09-23T12:12:57;2.83;;;1.40;;
55417;SDS011;41287;47.554;7.844;2022-09-23T12:26:40;2.88;;;1.50;;
55417;SDS011;41287;47.554;7.844;2022-09-23T12:29:08;2.65;;;1.40;;
55417;SDS011;41287;47.554;7.844;2022-09-23T12:31:37;2.08;;;1.23;;
55417;SDS011;41287;47.554;7.844;2022-09-23T12:34:39;7.53;;;1.45;;
55417;SDS011;41287;47.554;7.844;2022-09-23T12:37:01;2.50;;;1.40;;
55417;SDS011;41287;47.554;7.844;2022-09-23T12:39:30;2.38;;;1.17;;
55417;SDS011;41287;47.554;7.844;2022-09-23T12:42:00;2.42;;;1.10;;
55417;SDS011;41287;47.554;7.844;2022-09-23T12:44:40;4.03;;;1.35;;
55417;SDS011;41287;47.554;7.844;2022-09-23T12:49:44;3.70;;;1.67;;
55417;SDS011;41287;47.554;7.844;2022-09-23T12:54:42;6.55;;;1.60;;
55417;SDS011;41287;47.554;7.844;2022-09-23T12:57:10;4.32;;;1.30;;
55417;SDS011;41287;47.554;7.844;2022-09-23T12:59:52;3.10;;;1.45;;
55417;SDS011;41287;47.554;7.844;2022-09-23T13:02:26;3.50;;;1.30;;
55417;SDS011;41287;47.554;7.844;2022-09-23T13:05:02;2.08;;;1.23;;
55417;SDS011;41287;47.554;7.844;2022-09-23T13:07:47;2.60;;;1.42;;
55417;SDS011;41287;47.554;7.844;2022-09-23T13:10:15;6.05;;;1.70;;
55417;SDS011;41287;47.554;7.844;2022-09-23T13:12:45;1.95;;;1.30;;
55417;SDS011;41287;47.554;7.844;2022-09-23T13:15:15;4.68;;;1.52;;
55417;SDS011;41287;47.554;7.844;2022-09-23T13:20:45;1.95;;;1.15;;
55417;SDS011;41287;47.554;7.844;2022-09-23T13:23:22;3.40;;;1.10;;
55417;SDS011;41287;47.554;7.844;2022-09-23T13:25:56;4.20;;;1.27;;
55417;SDS011;41287;47.554;7.844;2022-09-23T13:28:28;3.53;;;1.60;;
55417;SDS011;41287;47.554;7.844;2022-09-23T13:30:56;2.35;;;1.40;;
55417;SDS011;41287;47.554;7.844;2022-09-23T13:33:28;4.25;;;1.67;;
55417;SDS011;41287;47.554;7.844;2022-09-23T13:35:56;3.47;;;1.48;;
55417;SDS011;41287;47.554;7.844;2022-09-23T13:38:26;4.38;;;1.42;;
55417;SDS011;41287;47.554;7.844;2022-09-23T13:43:30;5.00;;;1.33;;
55417;SDS011;41287;47.554;7.844;2022-09-23T13:46:00;3.28;;;1.40;;
55417;SDS011;41287;47.554;7.844;2022-09-23T13:48:29;4.45;;;1.50;;
55417;SDS011;41287;47.554;7.844;2022-09-23T13:50:55;2.17;;;1.40;;
55417;SDS011;41287;47.554;7.844;2022-09-23T13:53:23;3.78;;;1.20;;
55417;SDS011;41287;47.554;7.844;2022-09-23T13:56:02;3.78;;;1.92;;
55417;SDS011;41287;47.554;7.844;2022-09-23T13:58:30;4.57;;;1.83;;
55417;SDS011;41287;47.554;7.844;2022-09-23T14:00:57;2.20;;;1.35;;
55417;SDS011;41287;47.554;7.844;2022-09-23T14:03:27;3.28;;;1.40;;
55417;SDS011;41287;47.554;7.844;2022-09-23T14:06:01;2.20;;;1.35;;
55417;SDS011;41287;47.554;7.844;2022-09-23T14:08:31;1.92;;;1.30;;
55417;SDS011;41287;47.554;7.844;2022-09-23T14:10:59;2.63;;;1.40;;
55417;SDS011;41287;47.554;7.844;2022-09-23T14:13:28;2.30;;;1.27;;
55417;SDS011;41287;47.554;7.844;2022-09-23T14:15:59;2.28;;;1.30;;
55417;SDS011;41287;47.554;7.844;2022-09-23T14:18:36;2.28;;;1.40;;
55417;SDS011;41287;47.554;7.844;2022-09-23T14:21:05;3.58;;;1.50;;
55417;SDS011;41287;47.554;7.844;2022-09-23T14:23:49;1.52;;;1.20;;
55417;SDS011;41287;47.554;7.844;2022-09-23T14:26:15;3.17;;;1.10;;
55417;SDS011;41287;47.554;7.844;2022-09-23T14:28:43;2.78;;;1.40;;
55417;SDS011;41287;47.554;7.844;2022-09-23T14:31:10;4.78;;;1.70;;
55417;SDS011;41287;47.554;7.844;2022-09-23T14:33:38;2.33;;;1.33;;
55417;SDS011;41287;47.554;7.844;2022-09-23T14:36:08;2.63;;;1.20;;
55417;SDS011;41287;47.554;7.844;2022-09-23T14:39:02;3.28;;;1.33;;
55417;SDS011;41287;47.554;7.844;2022-09-23T14:41:37;4.07;;;1.40;;
55417;SDS011;41287;47.554;7.844;2022-09-23T14:44:05;2.00;;;1.30;;
55417;SDS011;41287;47.554;7.844;2022-09-23T14:46:38;3.33;;;1.33;;
55417;SDS011;41287;47.554;7.844;2022-09-23T14:56:53;4.20;;;1.63;;
55417;SDS011;41287;47.554;7.844;2022-09-23T14:59:32;7.15;;;1.60;;
55417;SDS011;41287;47.554;7.844;2022-09-23T15:02:00;5.28;;;1.42;;
55417;SDS011;41287;47.554;7.844;2022-09-23T15:04:27;6.68;;;1.60;;
55417;SDS011;41287;47.554;7.844;2022-09-23T15:09:32;4.05;;;1.40;;
55417;SDS011;41287;47.554;7.844;2022-09-23T15:12:04;8.80;;;1.70;;
55417;SDS011;41287;47.554;7.844;2022-09-23T15:14:36;10.63;;;1.60;;
55417;SDS011;41287;47.554;7.844;2022-09-23T15:17:05;5.38;;;1.73;;
55417;SDS011;41287;47.554;7.844;2022-09-23T15:19:39;7.85;;;1.63;;
55417;SDS011;41287;47.554;7.844;2022-09-23T15:22:05;5.88;;;1.40;;
55417;SDS011;41287;47.554;7.844;2022-09-23T15:24:36;6.55;;;1.17;;
55417;SDS011;41287;47.554;7.844;2022-09-23T15:27:51;6.32;;;1.70;;
55417;SDS011;41287;47.554;7.844;2022-09-23T15:30:00;8.07;;;1.33;;
55417;SDS011;41287;47.554;7.844;2022-09-23T15:32:38;4.82;;;1.75;;
55417;SDS011;41287;47.554;7.844;2022-09-23T15:35:03;2.67;;;1.27;;
55417;SDS011;41287;47.554;7.844;2022-09-23T15:37:31;4.43;;;1.70;;
55417;SDS011;41287;47.554;7.844;2022-09-23T15:39:57;3.08;;;1.23;;
55417;SDS011;41287;47.554;7.844;2022-09-23T15:42:22;7.07;;;1.83;;
55417;SDS011;41287;47.554;7.844;2022-09-23T15:44:47;4.07;;;1.98;;
55417;SDS011;41287;47.554;7.844;2022-09-23T15:47:14;6.60;;;1.50;;
55417;SDS011;41287;47.554;7.844;2022-09-23T15:49:42;3.63;;;1.60;;
55417;SDS011;41287;47.554;7.844;2022-09-23T15:52:11;6.93;;;1.33;;
55417;SDS011;41287;47.554;7.844;2022-09-23T15:54:36;4.95;;;1.50;;
55417;SDS011;41287;47.554;7.844;2022-09-23T15:57:02;3.70;;;1.67;;
55417;SDS011;41287;47.554;7.844;2022-09-23T15:59:28;3.17;;;1.48;;
55417;SDS011;41287;47.554;7.844;2022-09-23T16:01:54;4.40;;;1.48;;
55417;SDS011;41287;47.554;7.844;2022-09-23T16:04:22;3.42;;;1.30;;
55417;SDS011;41287;47.554;7.844;2022-09-23T16:06:48;3.50;;;1.40;;
55417;SDS011;41287;47.554;7.844;2022-09-23T16:09:14;6.03;;;1.30;;
55417;SDS011;41287;47.554;7.844;2022-09-23T16:11:42;4.03;;;1.30;;
55417;SDS011;41287;47.554;7.844;2022-09-23T16:14:12;5.72;;;1.75;;
55417;SDS011;41287;47.554;7.844;2022-09-23T16:16:39;3.30;;;1.40;;
55417;SDS011;41287;47.554;7.844;2022-09-23T16:19:06;1.20;;;1.10;;
55417;SDS011;41287;47.554;7.844;2022-09-23T16:21:31;4.65;;;1.45;;
55417;SDS011;41287;47.554;7.844;2022-09-23T16:23:57;4.25;;;1.60;;
55417;SDS011;41287;47.554;7.844;2022-09-23T16:26:24;2.55;;;1.35;;
55417;SDS011;41287;47.554;7.844;2022-09-23T16:28:53;2.50;;;1.33;;
55417;SDS011;41287;47.554;7.844;2022-09-23T16:31:20;5.05;;;1.70;;
55417;SDS011;41287;47.554;7.844;2022-09-23T16:33:49;3.35;;;1.55;;
55417;SDS011;41287;47.554;7.844;2022-09-23T16:36:25;5.72;;;1.75;;
55417;SDS011;41287;47.554;7.844;2022-09-23T16:38:53;3.42;;;1.88;;
55417;SDS011;41287;47.554;7.844;2022-09-23T16:41:22;6.15;;;2.10;;
55417;SDS011;41287;47.554;7.844;2022-09-23T16:43:51;3.50;;;1.60;;
55417;SDS011;41287;47.554;7.844;2022-09-23T16:46:17;4.38;;;1.63;;
55417;SDS011;41287;47.554;7.844;2022-09-23T16:48:43;3.25;;;1.70;;
55417;SDS011;41287;47.554;7.844;2022-09-23T16:51:15;2.40;;;1.40;;
55417;SDS011;41287;47.554;7.844;2022-09-23T16:53:42;3.00;;;1.63;;
55417;SDS011;41287;47.554;7.844;2022-09-23T16:56:09;2.88;;;1.60;;
55417;SDS011;41287;47.554;7.844;2022-09-23T16:58:37;3.47;;;1.60;;
55417;SDS011;41287;47.554;7.844;2022-09-23T17:01:05;4.32;;;1.45;;
55417;SDS011;41287;47.554;7.844;2022-09-23T17:03:51;4.70;;;1.52;;
55417;SDS011;41287;47.554;7.844;2022-09-23T17:06:17;6.38;;;1.67;;
55417;SDS011;41287;47.554;7.844;2022-09-23T17:08:43;5.82;;;1.67;;
55417;SDS011;41287;47.554;7.844;2022-09-23T17:11:13;6.25;;;1.83;;
55417;SDS011;41287;47.554;7.844;2022-09-23T17:13:40;3.78;;;1.67;;